Time;durP1;ratioP1;P1;durP2;ratioP2;P2;SDS_P1;SDS_P2;PMS_P1;PMS_P2;Temp;Humidity;BMP_temperature;BMP_pressure;BME280_temperature;BME280_humidity;BME280_pressure;Samples;Min_cycle;Max_cycle;Signal;HPM_P1;HPM_P2
2021/12/11 00:00:56;;;;;;;26.02;11.48;;;-0.90;99.90;;;;;;4175123;28;20583;-77
2021/12/11 00:03:04;;;;;;;23.67;10.90;;;-0.90;99.90;;;;;;4174214;28;20259;-77
2021/12/11 00:05:07;;;;;;;27.23;11.57;;;-0.90;99.90;;;;;;4178223;28;20491;-77
2021/12/11 00:07:11;;;;;;;23.40;10.73;;;-0.90;99.90;;;;;;4177426;28;20218;-77
2021/12/11 00:09:17;;;;;;;28.88;11.75;;;-1.00;99.90;;;;;;4176981;28;20297;-77
2021/12/11 00:11:24;;;;;;;31.63;12.65;;;-0.90;99.90;;;;;;4170517;28;20300;-76
2021/12/11 00:13:32;;;;;;;30.98;12.60;;;-1.00;99.90;;;;;;4176228;28;20206;-77
2021/12/11 00:15:36;;;;;;;32.88;13.50;;;-1.00;99.90;;;;;;4178552;28;20226;-77
2021/12/11 00:17:38;;;;;;;28.00;12.68;;;-1.00;99.90;;;;;;4185591;28;20206;-77
2021/12/11 00:19:41;;;;;;;29.98;13.00;;;-1.00;99.90;;;;;;4183169;28;20359;-77
2021/12/11 00:21:43;;;;;;;30.52;12.13;;;-1.00;99.90;;;;;;4186645;28;20748;-77
2021/12/11 00:23:52;;;;;;;27.08;11.50;;;-1.00;99.90;;;;;;4190656;28;20214;-78
2021/12/11 00:25:54;;;;;;;27.35;11.60;;;-1.00;99.90;;;;;;4188729;28;20238;-77
2021/12/11 00:28:04;;;;;;;27.35;11.88;;;-1.00;99.90;;;;;;4183200;28;20215;-78
2021/12/11 00:30:11;;;;;;;26.58;12.25;;;-1.10;99.90;;;;;;4180462;28;20260;-78
2021/12/11 00:32:20;;;;;;;28.52;11.63;;;-1.10;99.90;;;;;;4181623;28;20211;-77
2021/12/11 00:34:23;;;;;;;30.73;11.38;;;-1.10;99.90;;;;;;4180651;28;20246;-78
2021/12/11 00:36:32;;;;;;;27.67;11.65;;;-1.10;99.90;;;;;;4178572;28;20238;-78
2021/12/11 00:38:34;;;;;;;25.52;11.00;;;-1.10;99.90;;;;;;4171442;28;20277;-78
2021/12/11 00:40:38;;;;;;;31.05;12.35;;;-1.10;99.90;;;;;;4177996;28;20265;-78
2021/12/11 00:42:40;;;;;;;29.63;11.27;;;-1.10;99.90;;;;;;4177865;28;20214;-77
2021/12/11 00:44:45;;;;;;;24.25;11.48;;;-1.10;99.90;;;;;;4174714;28;20466;-78
2021/12/11 00:46:48;;;;;;;25.40;10.67;;;-1.20;99.90;;;;;;4171153;28;20226;-77
2021/12/11 00:48:50;;;;;;;25.95;11.00;;;-1.20;99.90;;;;;;4175802;28;20981;-77
2021/12/11 00:50:54;;;;;;;26.88;11.18;;;-1.20;99.90;;;;;;4174989;28;20215;-77
2021/12/11 00:52:59;;;;;;;25.50;11.27;;;-1.20;99.90;;;;;;4173809;28;20211;-77
2021/12/11 00:55:02;;;;;;;26.80;11.55;;;-1.20;99.90;;;;;;4175960;28;20665;-77
2021/12/11 00:57:04;;;;;;;29.33;12.48;;;-1.20;99.90;;;;;;4169887;28;20211;-77
2021/12/11 00:59:10;;;;;;;29.85;11.60;;;-1.20;99.90;;;;;;4181031;28;20215;-78
2021/12/11 01:01:17;;;;;;;29.42;12.40;;;-1.30;99.90;;;;;;4175190;28;20635;-77
2021/12/11 01:03:25;;;;;;;23.58;10.50;;;-1.30;99.90;;;;;;4179503;28;20214;-77
2021/12/11 01:05:35;;;;;;;24.40;11.20;;;-1.30;99.90;;;;;;4176883;28;20225;-78
2021/12/11 01:07:38;;;;;;;28.50;11.48;;;-1.30;99.90;;;;;;4173620;28;20198;-77
2021/12/11 01:09:46;;;;;;;27.75;11.70;;;-1.30;99.90;;;;;;4179688;28;20207;-77
2021/12/11 01:11:52;;;;;;;28.07;11.20;;;-1.30;99.90;;;;;;4178446;28;20449;-77
2021/12/11 01:14:07;;;;;;;27.17;11.98;;;-1.30;99.90;;;;;;4185278;28;20469;-77
2021/12/11 01:16:13;;;;;;;27.13;11.43;;;-1.30;99.90;;;;;;4190084;28;20254;-77
2021/12/11 01:18:23;;;;;;;24.40;11.13;;;-1.40;99.90;;;;;;4179756;28;20211;-78
2021/12/11 01:20:35;;;;;;;26.80;11.55;;;-1.40;99.90;;;;;;4182070;28;20217;-77
2021/12/11 01:22:38;;;;;;;26.13;11.48;;;-1.40;99.90;;;;;;4181227;28;20221;-78
2021/12/11 01:24:44;;;;;;;25.50;11.82;;;-1.40;99.90;;;;;;4179285;28;20222;-78
2021/12/11 01:26:49;;;;;;;23.10;11.13;;;-1.40;99.90;;;;;;4181318;28;20621;-78
2021/12/11 01:28:53;;;;;;;27.40;12.13;;;-1.40;99.90;;;;;;4180540;28;20267;-78
2021/12/11 01:30:55;;;;;;;26.52;11.52;;;-1.40;99.90;;;;;;4180397;28;20279;-78
2021/12/11 01:32:57;;;;;;;26.92;11.15;;;-1.40;99.90;;;;;;4172145;28;20262;-78
2021/12/11 01:35:00;;;;;;;28.50;12.05;;;-1.40;99.90;;;;;;4179870;28;20199;-78
2021/12/11 01:37:04;;;;;;;24.20;11.57;;;-1.40;99.90;;;;;;4182024;28;20615;-78
2021/12/11 01:39:11;;;;;;;27.35;11.60;;;-1.40;99.90;;;;;;4179603;28;20214;-78
2021/12/11 01:41:16;;;;;;;26.98;11.73;;;-1.40;99.90;;;;;;4167721;28;20284;-78
2021/12/11 01:43:21;;;;;;;23.55;10.98;;;-1.40;99.90;;;;;;4166293;28;20213;-77
2021/12/11 01:45:23;;;;;;;27.77;12.20;;;-1.40;99.90;;;;;;4178630;28;20226;-78
2021/12/11 01:47:29;;;;;;;28.02;11.95;;;-1.40;99.90;;;;;;4182088;28;20211;-78
2021/12/11 01:49:31;;;;;;;31.13;12.30;;;-1.40;99.90;;;;;;4179388;28;20589;-78
2021/12/11 01:51:36;;;;;;;29.48;12.05;;;-1.40;99.90;;;;;;4186815;28;20260;-78
2021/12/11 01:53:43;;;;;;;27.20;11.95;;;-1.40;99.90;;;;;;4183341;28;20221;-78
2021/12/11 01:55:48;;;;;;;32.65;12.85;;;-1.40;99.90;;;;;;4186012;28;20228;-78
2021/12/11 01:57:53;;;;;;;27.65;12.35;;;-1.40;99.90;;;;;;4182252;28;20656;-78
2021/12/11 02:00:00;;;;;;;27.35;12.05;;;-1.40;99.90;;;;;;4180412;28;20272;-78
2021/12/11 02:02:04;;;;;;;27.65;11.50;;;-1.40;99.90;;;;;;4173240;28;20223;-78
2021/12/11 02:04:09;;;;;;;27.95;11.70;;;-1.40;99.90;;;;;;4175582;28;20219;-78
2021/12/11 02:06:12;;;;;;;28.75;12.27;;;-1.40;99.90;;;;;;4179586;28;20292;-78
2021/12/11 02:08:20;;;;;;;28.58;11.82;;;-1.40;99.90;;;;;;4181513;28;20218;-78
2021/12/11 02:10:27;;;;;;;28.67;12.13;;;-1.40;99.90;;;;;;4175750;28;20214;-78
2021/12/11 02:12:39;;;;;;;27.88;12.77;;;-1.40;99.90;;;;;;4179784;28;20206;-78
2021/12/11 02:14:46;;;;;;;26.48;12.15;;;-1.40;99.90;;;;;;4179299;28;20267;-77
2021/12/11 02:16:49;;;;;;;28.20;12.32;;;-1.40;99.90;;;;;;4177139;28;20221;-77
2021/12/11 02:18:58;;;;;;;25.17;11.93;;;-1.50;99.90;;;;;;4175179;28;20668;-77
2021/12/11 02:21:03;;;;;;;26.98;11.73;;;-1.50;99.90;;;;;;4173149;28;20218;-78
2021/12/11 02:23:08;;;;;;;33.85;13.65;;;-1.50;99.90;;;;;;4172515;28;20683;-78
2021/12/11 02:25:13;;;;;;;28.98;11.65;;;-1.60;99.90;;;;;;4183038;28;20265;-78
2021/12/11 02:27:18;;;;;;;29.40;12.02;;;-1.60;99.90;;;;;;4182336;28;20632;-78
2021/12/11 02:29:25;;;;;;;31.67;12.90;;;-1.60;99.90;;;;;;4189354;28;20272;-78
2021/12/11 02:31:31;;;;;;;27.88;12.27;;;-1.60;99.90;;;;;;4176909;28;20568;-78
2021/12/11 02:33:38;;;;;;;28.00;11.68;;;-1.60;99.90;;;;;;4179346;28;20203;-78
2021/12/11 02:35:44;;;;;;;30.55;12.50;;;-1.60;99.90;;;;;;4178704;28;20324;-79
2021/12/11 02:37:50;;;;;;;27.77;12.13;;;-1.60;99.90;;;;;;4176608;28;20210;-79
2021/12/11 02:40:00;;;;;;;27.95;12.52;;;-1.60;99.90;;;;;;4193513;28;20224;-78
2021/12/11 02:42:09;;;;;;;26.67;11.98;;;-1.60;99.90;;;;;;4178423;28;20206;-78
2021/12/11 02:44:18;;;;;;;29.83;12.52;;;-1.60;99.90;;;;;;4162750;28;20213;-79
2021/12/11 02:46:24;;;;;;;31.25;12.75;;;-1.60;99.90;;;;;;4175568;28;20238;-77
2021/12/11 02:48:31;;;;;;;27.20;11.45;;;-1.60;99.90;;;;;;4170911;28;20215;-79
2021/12/11 02:50:37;;;;;;;30.30;13.43;;;-1.60;99.90;;;;;;4169599;28;20210;-77
2021/12/11 02:52:43;;;;;;;27.00;12.82;;;-1.60;99.90;;;;;;4187258;28;20210;-78
2021/12/11 02:54:49;;;;;;;28.67;12.20;;;-1.60;99.90;;;;;;4177843;28;20241;-78
2021/12/11 02:56:56;;;;;;;28.70;12.85;;;-1.60;99.90;;;;;;4175883;28;20247;-78
2021/12/11 02:59:03;;;;;;;28.40;12.18;;;-1.60;99.90;;;;;;4178865;28;20194;-77
2021/12/11 03:01:10;;;;;;;28.88;11.98;;;-1.60;99.90;;;;;;4178510;28;20202;-77
2021/12/11 03:03:14;;;;;;;31.55;12.30;;;-1.60;99.90;;;;;;4180834;28;20215;-77
2021/12/11 03:05:20;;;;;;;30.30;12.45;;;-1.70;99.90;;;;;;4171295;28;20280;-78
2021/12/11 03:07:33;;;;;;;31.60;12.73;;;-1.70;99.90;;;;;;4180440;28;20272;-78
2021/12/11 03:09:41;;;;;;;27.33;11.88;;;-1.70;99.90;;;;;;4181519;28;20264;-78
2021/12/11 03:11:43;;;;;;;29.55;12.07;;;-1.70;99.90;;;;;;4178924;28;20649;-77
2021/12/11 03:13:50;;;;;;;30.05;12.43;;;-1.70;99.90;;;;;;4176900;28;20213;-77
2021/12/11 03:15:52;;;;;;;33.50;12.82;;;-1.20;99.90;;;;;;4174554;28;20233;-77
2021/12/11 03:17:54;;;;;;;32.50;11.95;;;-1.70;99.90;;;;;;4178267;28;20279;-77
2021/12/11 03:19:56;;;;;;;34.00;12.90;;;-1.70;99.90;;;;;;4178684;28;20214;-77
2021/12/11 03:22:00;;;;;;;31.20;12.23;;;-1.70;99.90;;;;;;4174674;28;20666;-77
2021/12/11 03:24:02;;;;;;;35.45;12.63;;;-1.70;99.90;;;;;;4182615;28;20209;-77
2021/12/11 03:26:04;;;;;;;30.45;12.27;;;-1.70;99.90;;;;;;4183157;28;20675;-77
2021/12/11 03:28:09;;;;;;;31.95;12.77;;;-1.70;99.90;;;;;;4170896;28;20218;-77
2021/12/11 03:30:15;;;;;;;33.85;12.73;;;-1.80;99.90;;;;;;4178887;28;20230;-79
2021/12/11 03:32:18;;;;;;;32.92;12.82;;;-1.80;99.90;;;;;;4163804;28;20233;-78
2021/12/11 03:34:23;;;;;;;29.33;12.40;;;-1.80;99.90;;;;;;4175414;28;20210;-78
2021/12/11 03:36:26;;;;;;;30.98;12.18;;;-1.80;99.90;;;;;;4165239;28;20601;-78
2021/12/11 03:38:29;;;;;;;26.92;11.60;;;-1.80;99.90;;;;;;4168431;28;20264;-80
2021/12/11 03:40:31;;;;;;;30.90;12.18;;;-1.80;99.90;;;;;;4177857;28;20214;-78
2021/12/11 03:42:36;;;;;;;28.00;11.60;;;-1.80;99.90;;;;;;4177948;28;20212;-78
2021/12/11 03:44:38;;;;;;;35.67;13.48;;;-1.80;99.90;;;;;;4180984;28;20213;-79
2021/12/11 03:46:41;;;;;;;25.00;11.05;;;-1.80;99.90;;;;;;4187011;28;20291;-79
2021/12/11 03:48:46;;;;;;;29.10;12.27;;;-1.70;99.90;;;;;;4175755;28;20233;-76
2021/12/11 03:50:48;;;;;;;32.00;12.05;;;-1.80;99.90;;;;;;4175574;28;20218;-77
2021/12/11 03:52:52;;;;;;;30.25;12.35;;;-1.80;99.90;;;;;;4178223;28;20248;-77
2021/12/11 03:54:55;;;;;;;27.42;11.60;;;-1.80;99.90;;;;;;4178194;28;20210;-80
2021/12/11 03:56:58;;;;;;;30.13;12.50;;;-1.80;99.90;;;;;;4180292;28;20230;-77
2021/12/11 03:59:05;;;;;;;28.15;11.82;;;-1.90;99.90;;;;;;4186742;28;20206;-77
2021/12/11 04:01:13;;;;;;;27.50;11.90;;;-1.90;99.90;;;;;;4185362;28;20212;-78
2021/12/11 04:03:21;;;;;;;27.77;11.48;;;-1.90;99.90;;;;;;4178522;28;20212;-77
2021/12/11 04:05:22;;;;;;;26.70;10.68;;;-1.90;99.90;;;;;;4181207;28;20206;-77
2021/12/11 04:07:28;;;;;;;28.63;11.70;;;-2.00;99.90;;;;;;4174998;28;20613;-78
2021/12/11 04:09:30;;;;;;;26.33;10.82;;;-2.00;99.90;;;;;;4179871;28;20256;-77
2021/12/11 04:11:34;;;;;;;24.88;10.82;;;-2.00;99.90;;;;;;4188727;28;20255;-77
2021/12/11 04:13:36;;;;;;;23.05;9.40;;;-2.10;99.90;;;;;;4193597;28;20206;-77
2021/12/11 04:15:40;;;;;;;26.08;10.30;;;-2.10;99.90;;;;;;4181243;28;20753;-76
2021/12/11 04:17:42;;;;;;;22.02;9.85;;;-2.20;99.90;;;;;;4172012;28;20268;-77
2021/12/11 04:19:46;;;;;;;27.60;10.63;;;-2.20;99.90;;;;;;4177376;28;20203;-77
2021/12/11 04:21:49;;;;;;;25.60;10.57;;;-2.20;99.90;;;;;;4180092;28;20253;-76
2021/12/11 04:23:50;;;;;;;23.13;9.63;;;-2.20;99.90;;;;;;4179816;28;20214;-80
2021/12/11 04:25:56;;;;;;;22.33;9.63;;;-2.20;99.90;;;;;;4176932;28;20250;-77
2021/12/11 04:27:59;;;;;;;22.10;9.80;;;-2.30;99.90;;;;;;4193782;28;20213;-77
2021/12/11 04:30:04;;;;;;;20.08;9.07;;;-2.30;99.90;;;;;;4196329;28;20263;-78
2021/12/11 04:32:07;;;;;;;22.27;8.95;;;-2.40;99.90;;;;;;4188002;28;20237;-77
2021/12/11 04:34:10;;;;;;;16.20;8.30;;;-2.40;99.90;;;;;;4169226;28;20207;-77
2021/12/11 04:36:16;;;;;;;17.73;8.60;;;-2.50;99.90;;;;;;4183809;28;20242;-76
2021/12/11 04:38:18;;;;;;;18.15;9.00;;;-2.50;99.90;;;;;;4180266;28;20293;-76
2021/12/11 04:40:23;;;;;;;19.42;8.60;;;-2.50;99.90;;;;;;4180190;28;20222;-77
2021/12/11 04:42:37;;;;;;;18.50;8.65;;;-2.60;99.90;;;;;;4179295;28;20269;-77
2021/12/11 04:44:44;;;;;;;22.92;9.45;;;-2.60;99.90;;;;;;4173340;28;20203;-78
2021/12/11 04:46:45;;;;;;;19.27;8.77;;;-2.60;99.90;;;;;;4179904;28;20325;-78
2021/12/11 04:48:59;;;;;;;20.83;9.05;;;-2.60;99.90;;;;;;4180344;28;20244;-79
2021/12/11 04:51:11;;;;;;;20.45;9.23;;;-2.60;99.90;;;;;;4176934;28;20218;-79
2021/12/11 04:53:31;;;;;;;21.23;8.80;;;-2.60;99.90;;;;;;4175328;28;20739;-76
2021/12/11 04:55:51;;;;;;;19.42;9.07;;;-2.50;99.90;;;;;;4185384;28;20291;-77
2021/12/11 05:00:19;;;;;;;23.13;9.90;;;-2.50;99.90;;;;;;4168510;28;20207;-77
2021/12/11 05:02:55;;;;;;;19.05;9.32;;;-2.50;99.90;;;;;;4163430;28;20220;-76
2021/12/11 05:05:09;;;;;;;21.42;9.98;;;-2.50;99.90;;;;;;4179962;28;20218;-77
2021/12/11 05:07:24;;;;;;;20.23;9.98;;;-2.50;99.90;;;;;;4181792;28;20277;-77
2021/12/11 05:09:35;;;;;;;20.10;9.13;;;-2.50;99.90;;;;;;4174178;28;20265;-76
2021/12/11 05:11:41;;;;;;;20.63;9.18;;;-2.50;99.90;;;;;;4180660;28;20221;-77
2021/12/11 05:13:44;;;;;;;23.08;9.82;;;-2.40;99.90;;;;;;4181002;28;20250;-78
2021/12/11 05:15:48;;;;;;;20.42;9.27;;;-2.40;99.90;;;;;;4182350;28;20245;-77
2021/12/11 05:17:51;;;;;;;20.15;8.88;;;-2.50;99.90;;;;;;4179607;28;20207;-77
2021/12/11 05:19:53;;;;;;;20.55;9.10;;;-2.50;99.90;;;;;;4182468;28;20210;-77
2021/12/11 05:21:55;;;;;;;19.30;9.75;;;-2.50;99.90;;;;;;4173300;28;20216;-77
2021/12/11 05:23:57;;;;;;;21.73;9.50;;;-2.50;99.90;;;;;;4179176;28;20312;-77
2021/12/11 05:26:01;;;;;;;19.45;9.43;;;-2.50;99.90;;;;;;4180362;28;20272;-78
2021/12/11 05:28:04;;;;;;;19.77;9.10;;;-2.40;99.90;;;;;;4179185;28;20242;-78
2021/12/11 05:30:11;;;;;;;19.80;9.10;;;-2.50;99.90;;;;;;4169965;28;20550;-76
2021/12/11 05:32:16;;;;;;;19.50;9.35;;;-2.50;99.90;;;;;;4189948;28;20645;-77
2021/12/11 05:34:18;;;;;;;22.35;10.05;;;-2.40;99.90;;;;;;4177138;28;20269;-80
2021/12/11 05:36:22;;;;;;;25.42;10.90;;;-2.40;99.90;;;;;;4179408;28;20616;-77
2021/12/11 05:38:25;;;;;;;22.73;10.45;;;-2.50;99.90;;;;;;4171127;28;20218;-76
2021/12/11 05:40:29;;;;;;;25.63;10.63;;;-2.50;99.90;;;;;;4183441;28;20206;-79
2021/12/11 05:42:32;;;;;;;24.67;10.80;;;-2.50;99.90;;;;;;4187375;28;20442;-76
2021/12/11 05:44:34;;;;;;;22.42;9.77;;;-2.50;99.90;;;;;;4185149;28;20211;-76
2021/12/11 05:46:37;;;;;;;24.10;9.57;;;-2.50;99.90;;;;;;4166105;28;20235;-76
2021/12/11 05:48:39;;;;;;;23.88;10.48;;;-2.50;99.90;;;;;;4177994;28;20202;-77
2021/12/11 05:50:44;;;;;;;25.05;10.68;;;-2.40;99.90;;;;;;4182136;28;20215;-76
2021/12/11 05:52:47;;;;;;;22.10;9.95;;;-2.40;99.90;;;;;;4179011;28;20207;-77
2021/12/11 05:54:50;;;;;;;23.90;10.55;;;-2.40;99.90;;;;;;4176310;28;20580;-78
2021/12/11 05:56:55;;;;;;;26.08;10.90;;;-2.40;99.90;;;;;;4179985;28;20269;-77
2021/12/11 05:58:58;;;;;;;26.98;10.50;;;-2.40;99.90;;;;;;4181888;28;20221;-76
2021/12/11 06:01:00;;;;;;;22.88;9.80;;;-2.40;99.90;;;;;;4179244;28;20202;-76
2021/12/11 06:03:03;;;;;;;27.52;10.57;;;-2.40;99.90;;;;;;4172591;28;20273;-78
2021/12/11 06:05:06;;;;;;;25.35;10.55;;;-2.40;99.90;;;;;;4175909;28;20210;-77
2021/12/11 06:07:12;;;;;;;22.77;10.35;;;-2.40;99.90;;;;;;4177518;28;20242;-77
2021/12/11 06:09:16;;;;;;;26.40;10.88;;;-2.30;99.90;;;;;;4180039;28;20224;-78
2021/12/11 06:11:18;;;;;;;25.05;10.43;;;-2.30;99.90;;;;;;4175010;28;20268;-77
2021/12/11 06:13:20;;;;;;;23.15;9.85;;;-2.30;99.90;;;;;;4181353;28;20344;-77
2021/12/11 06:15:24;;;;;;;22.95;9.73;;;-2.30;99.90;;;;;;4184602;28;20259;-79
2021/12/11 06:17:29;;;;;;;21.63;10.30;;;-2.30;99.90;;;;;;4196501;28;20206;-77
2021/12/11 06:19:31;;;;;;;21.70;10.40;;;-2.30;99.90;;;;;;4182518;28;20211;-77
2021/12/11 06:21:35;;;;;;;24.98;11.05;;;-2.20;99.90;;;;;;4176445;28;20264;-77
2021/12/11 06:23:36;;;;;;;24.35;10.57;;;-2.20;99.90;;;;;;4180282;28;20206;-76
2021/12/11 06:25:39;;;;;;;23.90;11.27;;;-2.30;99.90;;;;;;4185694;28;20229;-78
2021/12/11 06:27:41;;;;;;;25.05;10.70;;;-2.30;99.90;;;;;;4179194;28;20233;-76
2021/12/11 06:29:43;;;;;;;25.02;10.13;;;-2.30;99.90;;;;;;4177641;28;20211;-76
2021/12/11 06:31:47;;;;;;;21.92;10.43;;;-2.30;99.90;;;;;;4179355;28;20218;-76
2021/12/11 06:33:51;;;;;;;24.13;10.27;;;-2.30;99.90;;;;;;4179833;28;20734;-76
2021/12/11 06:35:56;;;;;;;24.50;11.32;;;-2.20;99.90;;;;;;4178751;28;20679;-76
2021/12/11 06:38:02;;;;;;;25.33;11.15;;;-2.20;99.90;;;;;;4175653;28;20298;-76
2021/12/11 06:40:05;;;;;;;30.63;11.52;;;-2.20;99.90;;;;;;4176871;28;20209;-76
2021/12/11 06:42:09;;;;;;;26.05;11.18;;;-2.20;99.90;;;;;;4179476;28;20631;-76
2021/12/11 06:44:12;;;;;;;27.27;11.32;;;-2.20;99.90;;;;;;4178991;28;20206;-76
2021/12/11 06:46:14;;;;;;;26.42;11.38;;;-2.20;99.90;;;;;;4182405;28;20630;-77
2021/12/11 06:48:17;;;;;;;25.33;11.20;;;-2.20;99.90;;;;;;4186819;28;20218;-77
2021/12/11 06:50:19;;;;;;;33.47;12.52;;;-2.20;99.90;;;;;;4196898;28;20214;-76
2021/12/11 06:52:23;;;;;;;28.67;12.38;;;-2.30;99.90;;;;;;4185931;28;20289;-77
2021/12/11 06:54:25;;;;;;;28.55;12.23;;;-2.30;99.90;;;;;;4188501;28;20214;-77
2021/12/11 06:56:28;;;;;;;27.20;11.93;;;-2.30;99.90;;;;;;4183715;28;20292;-76
2021/12/11 06:58:31;;;;;;;30.20;12.45;;;-2.30;99.90;;;;;;4180960;28;20229;-76
2021/12/11 07:00:33;;;;;;;31.02;12.43;;;-2.20;99.90;;;;;;4183259;28;20219;-76
2021/12/11 07:02:35;;;;;;;29.25;11.90;;;-2.20;99.90;;;;;;4184290;28;20211;-77
2021/12/11 07:04:39;;;;;;;29.65;12.82;;;-2.20;99.90;;;;;;4175551;28;20261;-77
2021/12/11 07:06:45;;;;;;;27.23;12.52;;;-2.30;99.90;;;;;;4171907;28;20279;-76
2021/12/11 07:08:49;;;;;;;28.55;12.90;;;-2.30;99.90;;;;;;4180534;28;20211;-76
2021/12/11 07:10:51;;;;;;;31.75;12.85;;;-2.30;99.90;;;;;;4182653;28;20211;-76
2021/12/11 07:12:53;;;;;;;32.65;13.10;;;-1.80;99.90;;;;;;4175721;28;20213;-77
2021/12/11 07:14:54;;;;;;;30.10;12.65;;;-2.30;99.90;;;;;;4171691;28;20219;-77
2021/12/11 07:16:57;;;;;;;32.67;13.73;;;-2.30;99.90;;;;;;4172519;28;20260;-76
2021/12/11 07:18:59;;;;;;;34.20;13.98;;;-2.30;99.90;;;;;;4173119;28;20218;-78
2021/12/11 07:21:04;;;;;;;33.28;13.48;;;-2.30;99.90;;;;;;4175020;28;20210;-77
2021/12/11 07:23:06;;;;;;;31.27;13.40;;;-2.30;99.90;;;;;;4169839;28;20264;-77
2021/12/11 07:25:12;;;;;;;32.03;13.25;;;-2.20;99.90;;;;;;4174005;28;20601;-77
2021/12/11 07:27:16;;;;;;;30.42;12.52;;;-2.20;99.90;;;;;;4172713;28;20648;-77
2021/12/11 07:29:20;;;;;;;33.10;13.10;;;-2.20;99.90;;;;;;4174211;28;20215;-77
2021/12/11 07:31:23;;;;;;;35.35;12.88;;;-2.20;99.90;;;;;;4174456;28;20218;-77
2021/12/11 07:33:25;;;;;;;32.80;13.95;;;-2.20;99.90;;;;;;4171481;28;20215;-76
2021/12/11 07:35:27;;;;;;;32.20;14.02;;;-2.20;99.90;;;;;;4170611;28;20242;-76
2021/12/11 07:37:30;;;;;;;31.38;13.25;;;-2.20;99.90;;;;;;4172903;28;20203;-77
2021/12/11 07:39:32;;;;;;;37.42;13.55;;;-2.20;99.90;;;;;;4175031;28;20630;-76
2021/12/11 07:41:34;;;;;;;32.05;13.65;;;-2.10;99.90;;;;;;4173439;28;20215;-78
2021/12/11 07:43:37;;;;;;;34.00;13.65;;;-2.20;99.90;;;;;;4174303;28;20218;-77
2021/12/11 07:45:40;;;;;;;31.80;12.77;;;-2.20;99.90;;;;;;4182005;28;20276;-76
2021/12/11 07:47:42;;;;;;;31.58;13.65;;;-2.20;99.90;;;;;;4173894;28;20226;-77
2021/12/11 07:49:44;;;;;;;33.28;13.38;;;-2.20;99.90;;;;;;4177020;28;20214;-77
2021/12/11 07:51:48;;;;;;;32.72;13.73;;;-2.20;99.90;;;;;;4174019;28;20214;-77
2021/12/11 07:53:51;;;;;;;30.67;13.20;;;-2.20;99.90;;;;;;4177683;28;20230;-77
2021/12/11 07:55:53;;;;;;;29.58;12.60;;;-2.20;99.90;;;;;;4178671;28;20239;-77
2021/12/11 07:57:55;;;;;;;30.95;13.52;;;-2.20;99.90;;;;;;4173326;28;20207;-76
2021/12/11 07:59:57;;;;;;;31.50;13.27;;;-2.20;99.90;;;;;;4169695;28;20258;-77
2021/12/11 08:01:59;;;;;;;32.53;13.32;;;-2.10;99.90;;;;;;4169127;28;20210;-76
2021/12/11 08:04:01;;;;;;;27.13;12.88;;;-2.10;99.90;;;;;;4179342;28;20217;-77
2021/12/11 08:06:05;;;;;;;35.83;13.40;;;-2.10;99.90;;;;;;4175435;28;20321;-77
2021/12/11 08:08:09;;;;;;;30.67;11.77;;;-2.10;99.90;;;;;;4175290;28;20289;-77
2021/12/11 08:10:16;;;;;;;30.58;12.63;;;-2.10;99.90;;;;;;4177468;28;20277;-76
2021/12/11 08:12:18;;;;;;;31.10;12.95;;;-2.10;99.90;;;;;;4172734;28;20264;-76
2021/12/11 08:14:22;;;;;;;33.15;12.05;;;-2.10;99.90;;;;;;4178070;28;20218;-76
2021/12/11 08:16:31;;;;;;;29.75;12.35;;;-2.00;99.90;;;;;;4173091;28;20235;-77
2021/12/11 08:18:33;;;;;;;27.40;11.70;;;-2.00;99.90;;;;;;4173512;28;20617;-77
2021/12/11 08:20:37;;;;;;;28.85;12.20;;;-2.00;99.90;;;;;;4177135;28;20210;-78
2021/12/11 08:22:39;;;;;;;29.80;12.65;;;-2.00;99.90;;;;;;4169502;28;20207;-77
2021/12/11 08:24:41;;;;;;;26.20;11.45;;;-1.90;99.90;;;;;;4175187;28;20214;-77
2021/12/11 08:26:44;;;;;;;30.92;11.93;;;-1.40;99.90;;;;;;4173084;28;20226;-77
2021/12/11 08:28:48;;;;;;;27.90;11.20;;;-1.90;99.90;;;;;;4171371;28;20252;-76
2021/12/11 08:30:53;;;;;;;27.77;11.88;;;-1.80;99.90;;;;;;4174281;28;20230;-78
2021/12/11 08:32:55;;;;;;;38.17;13.52;;;-1.80;99.90;;;;;;4179512;28;20203;-76
2021/12/11 08:34:57;;;;;;;31.50;12.45;;;-1.80;99.90;;;;;;4177139;28;20218;-77
2021/12/11 08:37:02;;;;;;;34.50;13.38;;;-1.80;99.90;;;;;;4178222;28;20649;-77
2021/12/11 08:39:06;;;;;;;30.75;13.00;;;-1.70;99.90;;;;;;4179621;28;20340;-76
2021/12/11 08:41:10;;;;;;;37.85;13.30;;;-1.80;99.90;;;;;;4174148;28;20212;-76
2021/12/11 08:43:17;;;;;;;36.03;14.50;;;-1.80;99.90;;;;;;4173979;28;20203;-76
2021/12/11 08:45:24;;;;;;;34.33;13.20;;;-1.70;99.90;;;;;;4173072;28;20230;-75
2021/12/11 08:47:27;;;;;;;33.65;13.57;;;-1.80;99.90;;;;;;4172319;28;20272;-76
2021/12/11 08:49:31;;;;;;;32.55;12.98;;;-1.70;99.90;;;;;;4171288;28;20679;-76
2021/12/11 08:51:36;;;;;;;34.30;13.02;;;-1.70;99.90;;;;;;4175705;28;20250;-76
2021/12/11 08:53:38;;;;;;;26.88;12.52;;;-1.70;99.90;;;;;;4169635;28;20633;-77
2021/12/11 08:55:44;;;;;;;25.65;11.40;;;-1.70;99.90;;;;;;4176109;28;20230;-77
2021/12/11 08:57:46;;;;;;;29.53;12.83;;;-1.70;99.90;;;;;;4171950;28;20207;-77
2021/12/11 08:59:52;;;;;;;30.90;12.75;;;-1.70;99.90;;;;;;4170080;28;20460;-77
2021/12/11 09:02:00;;;;;;;32.85;12.93;;;-1.60;99.90;;;;;;4185903;28;20588;-77
2021/12/11 09:04:05;;;;;;;32.63;13.38;;;-1.60;99.90;;;;;;4174758;28;20222;-77
2021/12/11 09:06:11;;;;;;;31.83;12.95;;;-1.60;99.90;;;;;;4173243;28;20250;-77
2021/12/11 09:08:16;;;;;;;32.35;12.93;;;-1.60;99.90;;;;;;4172694;28;20772;-77
2021/12/11 09:10:21;;;;;;;30.38;12.73;;;-1.50;99.90;;;;;;4173500;28;20552;-76
2021/12/11 09:12:28;;;;;;;36.83;13.88;;;-1.60;99.90;;;;;;4181791;28;20239;-77
2021/12/11 09:14:35;;;;;;;31.50;12.45;;;-1.60;99.90;;;;;;4187459;28;20222;-77
2021/12/11 09:16:43;;;;;;;33.05;13.23;;;-1.60;99.90;;;;;;4197357;28;20245;-78
2021/12/11 09:18:48;;;;;;;31.27;13.13;;;-1.60;99.90;;;;;;4183612;28;20206;-78
2021/12/11 09:20:55;;;;;;;32.30;13.30;;;-1.60;99.90;;;;;;4179913;28;20222;-78
2021/12/11 09:23:02;;;;;;;31.45;12.32;;;-1.60;99.90;;;;;;4177587;28;20606;-78
2021/12/11 09:25:11;;;;;;;34.10;13.35;;;-1.60;99.90;;;;;;4181522;28;20267;-78
2021/12/11 09:27:18;;;;;;;29.13;12.30;;;-1.50;99.90;;;;;;4178850;28;20240;-78
2021/12/11 09:29:26;;;;;;;27.42;12.00;;;-1.50;99.90;;;;;;4180563;28;20230;-78
2021/12/11 09:31:35;;;;;;;31.10;12.45;;;-1.50;99.90;;;;;;4176152;28;20811;-77
2021/12/11 09:33:42;;;;;;;32.70;12.02;;;-1.40;99.90;;;;;;4176060;28;20199;-77
2021/12/11 09:35:50;;;;;;;30.35;12.38;;;-1.40;99.90;;;;;;4178256;28;20249;-78
2021/12/11 09:37:56;;;;;;;29.02;12.13;;;-1.50;99.90;;;;;;4180300;28;20217;-77
2021/12/11 09:40:00;;;;;;;30.88;12.63;;;-1.40;99.90;;;;;;4177525;28;20218;-77
2021/12/11 09:42:05;;;;;;;30.20;12.48;;;-1.40;99.90;;;;;;4177280;28;20645;-77
2021/12/11 09:44:10;;;;;;;27.80;12.10;;;-1.40;99.90;;;;;;4182306;28;20218;-77
2021/12/11 09:46:17;;;;;;;28.27;12.67;;;-1.30;99.90;;;;;;4181836;28;20557;-77
2021/12/11 09:48:19;;;;;;;30.63;12.93;;;-1.30;99.90;;;;;;4178158;28;20553;-77
2021/12/11 09:50:29;;;;;;;26.07;11.87;;;-1.30;99.90;;;;;;4178189;28;20491;-77
2021/12/11 09:52:32;;;;;;;30.95;13.43;;;-1.30;99.90;;;;;;4182881;28;20531;-77
2021/12/11 09:54:35;;;;;;;32.25;13.00;;;-1.20;99.90;;;;;;4181653;28;20328;-76
2021/12/11 09:56:40;;;;;;;31.17;13.73;;;-1.20;99.90;;;;;;4176918;28;20230;-76
2021/12/11 09:58:42;;;;;;;29.37;12.87;;;-1.20;99.90;;;;;;4178518;28;20207;-76
2021/12/11 10:00:49;;;;;;;29.97;11.87;;;-1.20;99.90;;;;;;4179703;28;21042;-77
2021/12/11 10:02:52;;;;;;;31.73;13.60;;;-1.10;99.90;;;;;;4186432;28;20962;-78
2021/12/11 10:05:00;;;;;;;35.20;13.90;;;-1.20;99.90;;;;;;4188867;28;20457;-82
2021/12/11 10:07:31;;;;;;;35.70;13.23;;;-1.20;99.90;;;;;;4188223;28;20512;-77
2021/12/11 10:09:37;;;;;;;34.38;13.90;;;-1.20;99.90;;;;;;4189487;28;20493;-86
2021/12/11 10:11:39;;;;;;;33.60;13.37;;;-1.10;99.90;;;;;;4190379;28;20214;-77
2021/12/11 10:13:43;;;;;;;33.30;13.47;;;-1.10;99.90;;;;;;4191637;28;20479;-77
2021/12/11 10:15:47;;;;;;;31.20;13.70;;;-1.00;99.90;;;;;;4196295;28;20468;-79
2021/12/11 10:17:52;;;;;;;38.20;14.17;;;-1.00;99.90;;;;;;4190653;28;20463;-77
2021/12/11 10:19:59;;;;;;;37.20;15.27;;;-1.00;99.90;;;;;;4167015;28;20524;-77
2021/12/11 10:22:11;;;;;;;41.22;15.32;;;-1.00;99.90;;;;;;4177499;28;20621;-77
2021/12/11 10:24:17;;;;;;;39.57;15.53;;;-0.90;99.90;;;;;;4190851;28;20624;-80
2021/12/11 10:26:22;;;;;;;37.47;15.60;;;-0.90;99.90;;;;;;4178954;28;20469;-77
2021/12/11 10:28:27;;;;;;;37.07;14.93;;;-0.90;99.90;;;;;;4173638;28;20499;-78
2021/12/11 10:30:32;;;;;;;40.03;15.20;;;-0.90;99.90;;;;;;4181028;28;20468;-78
2021/12/11 10:32:38;;;;;;;39.13;15.30;;;-0.90;99.90;;;;;;4178301;28;20747;-79
2021/12/11 10:34:42;;;;;;;36.13;15.00;;;-0.80;99.90;;;;;;4178214;28;20954;-78
2021/12/11 10:36:49;;;;;;;43.10;16.40;;;-0.80;99.90;;;;;;4176174;28;20554;-78